Time;durP1;ratioP1;P1;durP2;ratioP2;P2;SDS_P1;SDS_P2;PMS_P1;PMS_P2;Temp;Humidity;BMP_temperature;BMP_pressure;BME280_temperature;BME280_humidity;BME280_pressure;Samples;Min_cycle;Max_cycle;Signal;HPM_P1;HPM_P2
2023/04/12 00:02:13;;;;;;;5.30;1.57;;;;;;;6.69;100.00;100844.91;5003349;28;20479;-69
2023/04/12 00:04:39;;;;;;;5.03;1.57;;;;;;;6.67;100.00;100822.94;5001626;28;20240;-69
2023/04/12 00:07:04;;;;;;;8.27;1.70;;;;;;;6.47;100.00;100786.03;5000786;28;20201;-69
2023/04/12 00:09:31;;;;;;;4.83;2.47;;;;;;;6.58;100.00;100800.81;5004434;28;20202;-69
2023/04/12 00:11:58;;;;;;;2.93;1.53;;;;;;;6.75;100.00;100809.56;5003235;28;20208;-69
2023/04/12 00:14:27;;;;;;;3.50;1.40;;;;;;;6.75;100.00;100785.56;5003369;28;20424;-69
2023/04/12 00:16:52;;;;;;;4.70;1.43;;;;;;;6.30;100.00;100734.66;4991788;28;20433;-69
2023/04/12 00:19:18;;;;;;;4.20;1.63;;;;;;;6.11;100.00;100663.19;5002889;28;20427;-69
2023/04/12 00:21:43;;;;;;;6.97;2.03;;;;;;;5.95;100.00;100673.88;4990155;28;20290;-69
2023/04/12 00:24:09;;;;;;;7.43;1.87;;;;;;;5.73;100.00;100638.16;4987367;28;20192;-68
2023/04/12 00:26:34;;;;;;;3.57;1.47;;;;;;;6.52;100.00;100746.38;5004632;28;20250;-68
2023/04/12 00:29:00;;;;;;;7.97;2.00;;;;;;;6.56;100.00;100744.19;5003835;28;20197;-69
2023/04/12 00:31:26;;;;;;;3.20;1.40;;;;;;;6.71;100.00;100745.13;5003991;28;20205;-68
2023/04/12 00:33:52;;;;;;;3.03;1.50;;;;;;;6.81;100.00;100739.56;5004414;28;20265;-69
2023/04/12 00:36:17;;;;;;;8.67;2.10;;;;;;;6.85;100.00;100711.53;5003484;28;20579;-68
2023/04/12 00:38:44;;;;;;;5.80;1.77;;;;;;;6.36;100.00;100626.56;5003822;28;20192;-68
2023/04/12 00:41:10;;;;;;;5.53;1.53;;;;;;;6.76;100.00;100665.44;4988595;28;20193;-69
2023/04/12 00:43:36;;;;;;;4.40;1.60;;;;;;;6.22;100.00;100545.59;5004415;28;20433;-69
2023/04/12 00:46:02;;;;;;;3.73;1.30;;;;;;;7.06;100.00;100646.03;5003286;28;20439;-69
2023/04/12 00:48:28;;;;;;;4.97;1.47;;;;;;;6.55;100.00;100559.50;5002993;28;20648;-69
2023/04/12 00:50:57;;;;;;;5.10;1.87;;;;;;;6.91;100.00;100622.81;5004944;28;20794;-69
2023/04/12 00:53:22;;;;;;;9.50;2.13;;;;;;;6.91;100.00;100632.66;5002220;28;20498;-69
2023/04/12 00:55:49;;;;;;;4.57;1.67;;;;;;;6.74;100.00;100602.63;5003982;28;20432;-68
2023/04/12 00:58:16;;;;;;;3.90;1.57;;;;;;;6.81;100.00;100616.91;5002744;28;20177;-68
2023/04/12 01:00:48;;;;;;;4.90;2.33;;;;;;;6.89;100.00;100611.53;5003746;28;20438;-68
2023/04/12 01:03:26;;;;;;;4.90;1.87;;;;;;;6.71;100.00;100595.84;4989509;28;21012;-68
2023/04/12 01:05:57;;;;;;;4.20;1.83;;;;;;;6.89;100.00;100590.19;5002702;28;20424;-68
2023/04/12 01:09:08;;;;;;;4.40;1.67;;;;;;;6.52;100.00;100511.06;5003141;28;20439;-68
2023/04/12 01:11:42;;;;;;;5.77;1.97;;;;;;;6.80;100.00;100577.94;4989909;28;21018;-68
2023/04/12 01:14:50;;;;;;;6.43;2.00;;;;;;;6.85;100.00;100572.88;5003821;28;20423;-68
2023/04/12 01:17:20;;;;;;;3.97;1.80;;;;;;;6.61;100.00;100509.97;4983725;28;20432;-69
2023/04/12 01:20:00;;;;;;;3.20;1.20;;;;;;;6.96;100.00;100555.63;5000011;28;20816;-68
2023/04/12 01:25:37;;;;;;;6.67;2.10;;;;;;;6.93;100.00;100546.16;4964515;28;20488;-71
2023/04/12 01:28:04;;;;;;;5.87;1.83;;;;;;;7.01;100.00;100516.72;4963132;28;20437;-70
2023/04/12 01:30:31;;;;;;;8.40;1.80;;;;;;;7.06;100.00;100534.00;4980939;28;20552;-70
2023/04/12 01:32:59;;;;;;;7.20;1.87;;;;;;;6.70;100.00;100473.41;4979790;28;20467;-70
2023/04/12 01:35:30;;;;;;;8.60;1.73;;;;;;;7.21;100.00;100521.53;4980003;28;20449;-70
2023/04/12 01:37:59;;;;;;;6.73;1.87;;;;;;;6.97;100.00;100479.94;4981513;28;20523;-71
2023/04/12 01:40:28;;;;;;;7.10;1.73;;;;;;;7.06;100.00;100488.69;4980580;28;20441;-70
2023/04/12 01:43:10;;;;;;;4.23;1.50;;;;;;;6.76;100.00;100433.50;4980827;28;20465;-71
2023/04/12 01:45:36;;;;;;;3.13;1.20;;;;;;;7.23;100.00;100495.47;4983427;28;20518;-70
2023/04/12 01:48:04;;;;;;;3.80;1.33;;;;;;;7.06;100.00;100475.34;4982690;28;20460;-70
2023/04/12 01:51:03;;;;;;;8.20;2.23;;;;;;;7.13;100.00;100478.94;4981296;28;20205;-70
2023/04/12 01:53:44;;;;;;;5.83;1.93;;;;;;;7.00;100.00;100452.91;4980851;28;20535;-70
2023/04/12 01:56:11;;;;;;;6.43;1.90;;;;;;;7.14;100.00;100468.06;4978995;28;20511;-70
2023/04/12 01:58:39;;;;;;;7.23;2.73;;;;;;;7.01;100.00;100419.91;4979462;28;20444;-70
2023/04/12 02:01:06;;;;;;;8.03;1.70;;;;;;;6.87;100.00;100420.75;4978745;28;20436;-71
2023/04/12 02:03:32;;;;;;;8.90;2.00;;;;;;;6.55;100.00;100386.28;4964379;28;20484;-70
2023/04/12 02:05:58;;;;;;;6.63;1.63;;;;;;;7.21;100.00;100442.31;4980900;28;20442;-71
2023/04/12 02:08:24;;;;;;;15.27;3.00;;;;;;;7.06;100.00;100446.84;4966972;28;20447;-71
2023/04/12 02:10:50;;;;;;;5.47;1.80;;;;;;;6.46;100.00;100362.59;4967290;28;20467;-70
2023/04/12 02:13:19;;;;;;;4.33;2.33;;;;;;;7.02;100.00;100457.03;4971967;28;20472;-71
2023/04/12 02:15:44;;;;;;;10.27;2.90;;;;;;;7.10;100.00;100456.13;4978466;28;20445;-70
2023/04/12 02:18:12;;;;;;;4.70;1.80;;;;;;;6.68;100.00;100388.31;4963161;28;21243;-70
2023/04/12 02:20:38;;;;;;;7.23;2.27;;;;;;;7.01;100.00;100410.06;4963175;28;20272;-70
2023/04/12 02:23:03;;;;;;;7.37;1.93;;;;;;;7.17;100.00;100450.88;4979927;28;21129;-70
2023/04/12 02:25:29;;;;;;;4.67;2.00;;;;;;;7.04;100.00;100442.72;4980661;28;20943;-71
2023/04/12 02:27:55;;;;;;;3.70;1.77;;;;;;;6.85;100.00;100402.25;4965631;28;20185;-71
2023/04/12 02:30:21;;;;;;;7.10;1.63;;;;;;;6.90;100.00;100394.53;4979123;28;20472;-71
2023/04/12 02:32:47;;;;;;;5.23;1.90;;;;;;;6.51;100.00;100334.38;4981889;28;20214;-70
2023/04/12 02:35:16;;;;;;;6.13;1.67;;;;;;;7.28;100.00;100426.38;4977869;28;20450;-71
2023/04/12 02:37:42;;;;;;;3.50;1.70;;;;;;;7.28;100.00;100434.38;4966253;28;20224;-71
2023/04/12 02:40:10;;;;;;;6.53;1.93;;;;;;;6.45;100.00;100300.50;4981719;28;20473;-70
2023/04/12 02:42:35;;;;;;;10.03;2.00;;;;;;;7.28;100.00;100407.72;4965003;28;20438;-70
2023/04/12 02:45:01;;;;;;;7.80;1.80;;;;;;;7.26;100.00;100396.41;4961933;28;20817;-70
2023/04/12 02:47:28;;;;;;;6.60;2.03;;;;;;;7.08;100.00;100393.31;4980089;28;20189;-71
2023/04/12 02:49:53;;;;;;;6.30;1.80;;;;;;;6.85;100.00;100356.13;4967056;28;20267;-70
2023/04/12 02:52:19;;;;;;;3.97;2.20;;;;;;;7.04;100.00;100381.38;4983695;28;20437;-70
2023/04/12 02:54:44;;;;;;;7.17;2.20;;;;;;;6.78;100.00;100335.53;4983431;28;20243;-71
2023/04/12 02:57:10;;;;;;;6.83;2.27;;;;;;;6.89;100.00;100352.09;4967362;28;20194;-70
2023/04/12 02:59:36;;;;;;;4.80;1.80;;;;;;;6.27;100.00;100273.38;4967877;28;20273;-70
2023/04/12 03:02:01;;;;;;;5.90;1.87;;;;;;;7.01;100.00;100396.72;4982306;28;20428;-70
2023/04/12 03:04:29;;;;;;;5.03;1.87;;;;;;;6.88;100.00;100353.91;4983156;28;20202;-70
2023/04/12 03:06:55;;;;;;;5.40;2.23;;;;;;;6.68;100.00;100316.34;4968240;28;20212;-71
2023/04/12 03:09:21;;;;;;;5.07;2.03;;;;;;;6.67;100.00;100289.88;4965770;28;20426;-71
2023/04/12 03:11:47;;;;;;;7.40;2.40;;;;;;;6.81;100.00;100322.84;4966597;28;20448;-71
2023/04/12 03:14:13;;;;;;;5.60;2.20;;;;;;;6.80;100.00;100298.03;4982497;28;20445;-71
2023/04/12 03:16:38;;;;;;;4.90;1.83;;;;;;;6.64;100.00;100295.59;4981580;28;20438;-70
2023/04/12 03:19:05;;;;;;;8.60;3.87;;;;;;;7.35;100.00;100375.78;4982205;28;20913;-71
2023/04/12 03:21:32;;;;;;;8.10;3.20;;;;;;;6.78;100.00;100278.75;4961573;28;20190;-71
2023/04/12 03:23:57;;;;;;;9.70;2.70;;;;;;;6.62;100.00;100262.97;4980248;28;20460;-71
2023/04/12 03:26:25;;;;;;;7.40;2.27;;;;;;;6.91;100.00;100299.38;4964164;28;20793;-70
2023/04/12 03:28:51;;;;;;;6.87;2.27;;;;;;;6.93;100.00;100322.19;4965462;28;20200;-70
2023/04/12 03:31:19;;;;;;;5.40;2.43;;;;;;;7.12;100.00;100341.28;4979508;28;20528;-70
2023/04/12 03:33:45;;;;;;;6.07;1.93;;;;;;;6.84;100.00;100296.66;4966490;28;20453;-70
2023/04/12 03:36:10;;;;;;;5.20;2.23;;;;;;;6.69;100.00;100288.69;4963354;28;20459;-70
2023/04/12 03:38:36;;;;;;;7.40;2.63;;;;;;;6.89;100.00;100314.75;4966808;28;20186;-71
2023/04/12 03:41:01;;;;;;;4.90;1.80;;;;;;;6.74;100.00;100280.09;4965954;28;20182;-70
2023/04/12 03:43:27;;;;;;;6.00;2.17;;;;;;;6.79;100.00;100278.53;4966485;28;20205;-71
2023/04/12 03:45:52;;;;;;;9.40;2.03;;;;;;;6.63;100.00;100261.97;4968856;28;20185;-70
2023/04/12 03:48:18;;;;;;;4.43;1.80;;;;;;;6.49;100.00;100235.16;4965146;28;20221;-70
2023/04/12 03:50:44;;;;;;;5.67;2.20;;;;;;;7.14;100.00;100323.22;4967175;28;20212;-71
2023/04/12 03:53:10;;;;;;;6.30;2.57;;;;;;;6.20;100.00;100181.94;4983171;28;20229;-70
2023/04/12 03:55:36;;;;;;;6.20;2.03;;;;;;;7.22;100.00;100315.94;4964126;28;20269;-70
2023/04/12 03:58:02;;;;;;;7.80;3.40;;;;;;;7.23;100.00;100308.75;4964380;28;20516;-70
2023/04/12 04:00:30;;;;;;;8.37;1.90;;;;;;;7.29;100.00;100324.03;4979526;28;20193;-70
2023/04/12 04:02:57;;;;;;;5.90;2.37;;;;;;;6.89;100.00;100254.25;4969524;28;20535;-70
2023/04/12 04:05:23;;;;;;;6.13;1.80;;;;;;;6.66;100.00;100214.44;4963600;28;20453;-70
2023/04/12 04:07:48;;;;;;;6.83;2.63;;;;;;;6.85;100.00;100244.97;4982445;28;20857;-70
2023/04/12 04:10:14;;;;;;;5.43;2.40;;;;;;;7.11;100.00;100311.09;4984332;28;20219;-71
2023/04/12 04:12:40;;;;;;;4.13;2.27;;;;;;;7.34;100.00;100302.91;4980120;28;20186;-70
2023/04/12 04:15:06;;;;;;;6.53;2.40;;;;;;;6.65;100.00;100257.25;4978135;28;20537;-71
2023/04/12 04:17:31;;;;;;;3.17;1.57;;;;;;;6.82;100.00;100265.84;4986267;28;20206;-71
2023/04/12 04:19:56;;;;;;;8.00;2.27;;;;;;;6.91;100.00;100275.38;4985791;28;20417;-71
2023/04/12 04:22:22;;;;;;;7.83;3.63;;;;;;;7.13;100.00;100324.25;4984293;28;20258;-72
2023/04/12 04:24:48;;;;;;;9.43;2.47;;;;;;;7.29;100.00;100331.16;4985334;28;20194;-71
2023/04/12 04:27:14;;;;;;;6.20;2.23;;;;;;;6.79;100.00;100219.88;4969237;28;20232;-71
2023/04/12 04:29:44;;;;;;;4.63;2.20;;;;;;;6.70;100.00;100223.69;4967246;28;20469;-71
2023/04/12 04:32:10;;;;;;;6.70;2.00;;;;;;;7.09;100.00;100257.13;4985092;28;20178;-71
2023/04/12 04:34:36;;;;;;;4.03;2.50;;;;;;;7.24;100.00;100281.06;4983637;28;20438;-71
2023/04/12 04:37:01;;;;;;;5.10;2.13;;;;;;;7.10;100.00;100269.44;4984358;28;20782;-71
2023/04/12 04:39:27;;;;;;;5.07;1.90;;;;;;;6.87;100.00;100242.94;4984712;28;20660;-71
2023/04/12 04:41:53;;;;;;;4.57;2.03;;;;;;;7.27;100.00;100272.69;4985372;28;20185;-71
2023/04/12 04:44:19;;;;;;;5.80;2.30;;;;;;;6.85;100.00;100199.66;4969185;28;20931;-71
2023/04/12 04:46:45;;;;;;;12.70;2.77;;;;;;;7.40;100.00;100277.31;4985376;28;20975;-71
2023/04/12 04:49:10;;;;;;;7.17;2.33;;;;;;;7.23;100.00;100266.91;4966146;28;20447;-71
2023/04/12 04:51:36;;;;;;;5.77;2.10;;;;;;;6.69;100.00;100197.25;4966267;28;20213;-71
2023/04/12 04:54:02;;;;;;;5.63;1.90;;;;;;;7.30;100.00;100295.50;4983343;28;20206;-71
2023/04/12 04:56:27;;;;;;;6.90;2.57;;;;;;;6.87;100.00;100237.63;4969785;28;20191;-71
2023/04/12 04:58:53;;;;;;;7.63;2.70;;;;;;;6.51;100.00;100232.31;4983197;28;20453;-71
2023/04/12 05:01:18;;;;;;;7.97;2.07;;;;;;;6.57;100.00;100237.72;4984594;28;20980;-71
2023/04/12 05:03:44;;;;;;;10.77;2.83;;;;;;;7.14;100.00;100326.72;4984551;28;20206;-71
2023/04/12 05:06:10;;;;;;;7.67;2.67;;;;;;;6.96;100.00;100327.13;4983788;28;20190;-71
2023/04/12 05:08:36;;;;;;;6.73;2.17;;;;;;;6.51;100.00;100269.63;4984344;28;20269;-71
2023/04/12 05:11:01;;;;;;;6.70;1.90;;;;;;;7.14;100.00;100332.03;4984783;28;20559;-71
2023/04/12 05:13:27;;;;;;;6.43;2.23;;;;;;;7.21;100.00;100335.63;4978353;28;20573;-71
2023/04/12 05:15:52;;;;;;;5.33;2.70;;;;;;;7.05;100.00;100311.03;4982090;28;20217;-71
2023/04/12 05:18:18;;;;;;;5.57;1.70;;;;;;;6.50;100.00;100239.44;4985594;28;20178;-70
2023/04/12 05:20:44;;;;;;;5.90;2.23;;;;;;;7.01;100.00;100315.91;4967172;28;20177;-71
2023/04/12 05:23:10;;;;;;;6.57;2.17;;;;;;;7.14;100.00;100315.22;4978960;28;20224;-71
2023/04/12 05:25:35;;;;;;;3.40;1.87;;;;;;;6.84;100.00;100272.66;4985814;28;20840;-71
2023/04/12 05:28:01;;;;;;;4.37;2.00;;;;;;;7.11;100.00;100312.94;4969783;28;20686;-71
2023/04/12 05:30:26;;;;;;;4.50;1.93;;;;;;;7.03;100.00;100295.22;4983110;28;20212;-71
2023/04/12 05:32:51;;;;;;;7.60;2.30;;;;;;;6.78;100.00;100244.91;4967535;28;20571;-70
2023/04/12 05:35:17;;;;;;;4.70;2.00;;;;;;;6.87;100.00;100248.28;4983958;28;20178;-71
2023/04/12 05:37:42;;;;;;;3.97;1.70;;;;;;;7.05;100.00;100303.03;4982794;28;20585;-71
2023/04/12 05:40:08;;;;;;;7.73;2.30;;;;;;;7.01;100.00;100275.91;4982907;28;20190;-71
2023/04/12 05:42:36;;;;;;;5.40;2.27;;;;;;;6.49;100.00;100191.69;4984716;28;20193;-71
2023/04/12 05:45:02;;;;;;;3.83;1.90;;;;;;;6.30;100.00;100142.50;4969962;28;20445;-70
2023/04/12 05:47:28;;;;;;;3.90;1.93;;;;;;;6.49;100.00;100168.53;4986568;28;20433;-71
2023/04/12 05:49:53;;;;;;;7.37;2.50;;;;;;;6.72;100.00;100220.84;4984216;28;20472;-71
2023/04/12 05:52:19;;;;;;;9.40;2.10;;;;;;;6.94;100.00;100251.00;4983305;28;20778;-71
2023/04/12 05:54:44;;;;;;;5.40;1.97;;;;;;;6.61;100.00;100181.38;4968448;28;20681;-71
2023/04/12 05:57:11;;;;;;;8.40;1.90;;;;;;;7.01;100.00;100246.59;4968496;28;20245;-71
2023/04/12 05:59:36;;;;;;;5.43;2.27;;;;;;;7.07;100.00;100237.00;4983744;28;20190;-71
2023/04/12 06:02:02;;;;;;;4.10;1.87;;;;;;;6.78;100.00;100185.44;4967392;28;20480;-71
2023/04/12 06:04:27;;;;;;;4.73;1.67;;;;;;;7.16;100.00;100219.84;4968215;28;20850;-71
2023/04/12 06:06:53;;;;;;;3.23;1.73;;;;;;;7.07;100.00;100213.00;4983759;28;20602;-71
2023/04/12 06:09:18;;;;;;;5.07;2.03;;;;;;;6.88;100.00;100159.28;4966116;28;20746;-71
2023/04/12 06:11:43;;;;;;;4.93;1.73;;;;;;;6.97;100.00;100152.81;4984671;28;20593;-71
2023/04/12 06:14:09;;;;;;;11.03;2.50;;;;;;;7.13;100.00;100196.22;4983791;28;20198;-71
2023/04/12 06:16:34;;;;;;;5.57;1.80;;;;;;;7.20;100.00;100187.28;4983671;28;20188;-71
2023/04/12 06:19:00;;;;;;;6.43;2.00;;;;;;;6.73;100.00;100110.56;4983776;28;20382;-71
2023/04/12 06:21:25;;;;;;;7.27;1.97;;;;;;;6.90;100.00;100146.59;4982751;28;20183;-71
2023/04/12 06:23:50;;;;;;;4.83;1.97;;;;;;;6.92;100.00;100139.25;4982671;28;20724;-71
2023/04/12 06:26:16;;;;;;;5.67;1.57;;;;;;;7.09;100.00;100133.59;4983937;28;20189;-71
2023/04/12 06:28:41;;;;;;;5.20;1.90;;;;;;;6.86;100.00;100096.53;4966342;28;20194;-71
2023/04/12 06:31:07;;;;;;;4.10;2.07;;;;;;;6.91;100.00;100097.56;4983047;28;20272;-71
2023/04/12 06:33:32;;;;;;;5.23;1.90;;;;;;;7.10;100.00;100082.75;4983113;28;20716;-71
2023/04/12 06:35:59;;;;;;;5.53;1.60;;;;;;;7.16;100.00;100092.66;4983122;28;20600;-71
2023/04/12 06:38:24;;;;;;;6.67;1.93;;;;;;;6.55;100.00;99981.28;4983435;28;20636;-71
2023/04/12 06:40:50;;;;;;;5.30;1.67;;;;;;;6.58;100.00;99972.06;4983116;28;20432;-71
2023/04/12 06:43:19;;;;;;;4.80;1.97;;;;;;;7.11;100.00;100054.25;4965425;28;20202;-71
2023/04/12 06:45:45;;;;;;;5.83;1.70;;;;;;;7.31;100.00;100025.03;4967774;28;20178;-71
2023/04/12 06:48:10;;;;;;;6.07;1.97;;;;;;;7.25;100.00;100011.44;4968336;28;20420;-71
2023/04/12 06:50:36;;;;;;;4.60;1.87;;;;;;;7.17;100.00;99992.13;4982521;28;20826;-71
2023/04/12 06:53:01;;;;;;;3.67;1.70;;;;;;;7.17;100.00;99986.78;4984407;28;20238;-71
2023/04/12 06:55:28;;;;;;;5.60;1.83;;;;;;;7.15;100.00;99956.84;4965873;28;20182;-70
2023/04/12 06:57:54;;;;;;;3.50;1.30;;;;;;;7.21;100.00;99956.88;4967998;28;20186;-71
2023/04/12 07:00:20;;;;;;;4.53;1.93;;;;;;;6.68;100.00;99879.28;4970838;28;20428;-72
2023/04/12 07:02:45;;;;;;;4.70;1.97;;;;;;;6.95;100.00;99884.75;4987427;28;20452;-71
2023/04/12 07:05:11;;;;;;;4.17;1.60;;;;;;;7.19;100.00;99928.75;4985857;28;20202;-71
2023/04/12 07:07:36;;;;;;;5.83;1.80;;;;;;;7.28;100.00;99930.22;4986770;28;20187;-71
2023/04/12 07:10:03;;;;;;;6.40;1.70;;;;;;;7.38;100.00;99928.00;4987479;28;20233;-71
2023/04/12 07:12:28;;;;;;;2.90;1.87;;;;;;;6.82;100.00;99850.84;4968779;28;20196;-71
2023/04/12 07:14:54;;;;;;;8.20;2.23;;;;;;;6.60;100.00;99809.34;4985466;28;20429;-71
2023/04/12 07:17:20;;;;;;;6.03;1.63;;;;;;;7.17;100.00;99888.09;4987015;28;20186;-71
2023/04/12 07:19:46;;;;;;;5.90;1.70;;;;;;;6.76;100.00;99846.31;4969143;28;20181;-71
2023/04/12 07:22:12;;;;;;;4.50;1.50;;;;;;;7.41;100.00;99913.44;4982467;28;20443;-71
2023/04/12 07:24:37;;;;;;;4.80;1.73;;;;;;;7.24;100.00;99913.78;4986634;28;20460;-71
2023/04/12 07:27:03;;;;;;;6.93;2.20;;;;;;;6.90;100.00;99858.69;4986337;28;20189;-71
2023/04/12 07:29:28;;;;;;;3.70;1.83;;;;;;;7.01;100.00;99876.78;4970399;28;20656;-71
2023/04/12 07:31:54;;;;;;;3.27;1.60;;;;;;;7.06;100.00;99840.69;4986755;28;20178;-71
2023/04/12 07:34:19;;;;;;;5.13;2.03;;;;;;;7.35;100.00;99898.25;4986196;28;20240;-71
2023/04/12 07:36:45;;;;;;;2.13;1.57;;;;;;;7.35;100.00;99895.56;4987077;28;20252;-71
2023/04/12 07:39:13;;;;;;;4.93;2.00;;;;;;;7.33;100.00;99903.75;4970272;28;20177;-71
2023/04/12 07:41:41;;;;;;;6.20;1.73;;;;;;;7.44;100.00;99887.19;4984586;28;20186;-71
2023/04/12 07:44:06;;;;;;;4.80;2.23;;;;;;;7.23;100.00;99881.97;4964525;28;20484;-71
2023/04/12 07:46:32;;;;;;;6.07;2.10;;;;;;;7.35;100.00;99885.72;4985070;28;20457;-72
2023/04/12 07:48:57;;;;;;;5.23;1.53;;;;;;;7.09;100.00;99810.94;4970874;28;20182;-71
2023/04/12 07:51:22;;;;;;;4.60;1.93;;;;;;;6.99;100.00;99838.00;4986550;28;20256;-71
2023/04/12 07:53:48;;;;;;;5.30;1.70;;;;;;;6.75;100.00;99794.84;4967489;28;20576;-71
2023/04/12 07:56:14;;;;;;;3.00;1.77;;;;;;;7.39;100.00;99856.78;4985915;28;20183;-71
2023/04/12 07:58:40;;;;;;;5.30;1.50;;;;;;;6.74;100.00;99771.06;4973573;28;20182;-71
2023/04/12 08:01:06;;;;;;;3.13;1.83;;;;;;;7.30;100.00;99869.50;4985689;28;20461;-71
2023/04/12 08:03:31;;;;;;;5.00;2.00;;;;;;;7.41;100.00;99862.75;4985759;28;20209;-72
2023/04/12 08:05:57;;;;;;;3.90;2.00;;;;;;;6.30;100.00;99711.06;4985617;28;20426;-72
2023/04/12 08:08:22;;;;;;;5.20;2.13;;;;;;;7.33;100.00;99860.25;4985100;28;20193;-71
2023/04/12 08:10:48;;;;;;;4.47;1.50;;;;;;;7.28;100.00;99873.38;4969030;28;20202;-71
2023/04/12 08:13:14;;;;;;;10.63;2.83;;;;;;;6.65;100.00;99786.41;4987374;28;20207;-71
2023/04/12 08:15:40;;;;;;;5.43;2.00;;;;;;;7.38;100.00;99896.00;4969514;28;20182;-71
2023/04/12 08:18:05;;;;;;;5.10;2.10;;;;;;;6.64;100.00;99800.75;4968885;28;20816;-71
2023/04/12 08:20:31;;;;;;;4.57;2.03;;;;;;;7.48;100.00;99893.75;4983619;28;20181;-72
2023/04/12 08:22:57;;;;;;;3.93;2.00;;;;;;;6.89;100.00;99816.25;4967876;28;20241;-72
2023/04/12 08:25:23;;;;;;;6.13;2.10;;;;;;;7.49;100.00;99905.22;4968819;28;20439;-72
2023/04/12 08:27:49;;;;;;;3.63;1.83;;;;;;;7.51;100.00;99913.88;4969023;28;20193;-72
2023/04/12 08:30:15;;;;;;;6.63;1.80;;;;;;;7.11;100.00;99878.25;4966117;28;20523;-71
2023/04/12 08:32:40;;;;;;;5.03;1.63;;;;;;;6.81;100.00;99833.22;4985612;28;20440;-71
2023/04/12 08:35:07;;;;;;;3.73;1.80;;;;;;;7.53;100.00;99933.19;4968359;28;20687;-71
2023/04/12 08:37:33;;;;;;;2.73;1.70;;;;;;;7.00;100.00;99885.81;4983861;28;20683;-71
2023/04/12 08:40:03;;;;;;;4.27;1.93;;;;;;;7.46;100.00;99959.84;4969327;28;20425;-72
2023/04/12 08:42:30;;;;;;;2.53;1.60;;;;;;;7.18;100.00;99919.94;4969069;28;20854;-72
2023/04/12 08:44:56;;;;;;;6.50;1.70;;;;;;;6.85;100.00;99893.09;4984185;28;20428;-72
2023/04/12 08:47:21;;;;;;;2.97;1.60;;;;;;;7.46;100.00;99978.53;4968727;28;21013;-72
2023/04/12 08:49:47;;;;;;;4.90;1.67;;;;;;;7.56;100.00;99988.00;4984506;28;20203;-72
2023/04/12 08:52:12;;;;;;;4.53;1.50;;;;;;;7.33;100.00;99948.31;4969075;28;20585;-72
2023/04/12 08:54:37;;;;;;;3.30;1.70;;;;;;;7.64;100.00;100003.84;4984479;28;20689;-71
2023/04/12 08:57:05;;;;;;;5.93;2.00;;;;;;;7.39;100.00;99985.66;4967203;28;20649;-72
2023/04/12 08:59:35;;;;;;;4.17;2.17;;;;;;;7.57;100.00;100062.50;4969572;28;20201;-72
2023/04/12 09:02:01;;;;;;;3.73;1.87;;;;;;;7.35;100.00;100037.78;4985439;28;20516;-72
2023/04/12 09:04:26;;;;;;;2.67;1.87;;;;;;;7.65;100.00;100065.00;4983869;28;20562;-72
2023/04/12 09:06:52;;;;;;;6.27;2.50;;;;;;;7.65;100.00;100080.22;4967631;28;20348;-72
2023/04/12 09:09:18;;;;;;;3.97;1.60;;;;;;;7.43;100.00;100058.13;4985213;28;20229;-72
2023/04/12 09:11:43;;;;;;;2.63;1.63;;;;;;;7.47;100.00;100065.56;4985043;28;20663;-71
2023/04/12 09:14:35;;;;;;;3.27;1.93;;;;;;;7.46;100.00;100069.25;4984064;28;20449;-72
2023/04/12 09:17:00;;;;;;;4.20;1.97;;;;;;;7.37;100.00;100058.91;4980366;28;20208;-72
2023/04/12 09:19:33;;;;;;;8.60;2.03;;;;;;;7.72;100.00;100117.59;4983540;28;20844;-72
2023/04/12 09:22:00;;;;;;;3.50;1.77;;;;;;;7.75;100.00;100126.03;4964713;28;20244;-72
2023/04/12 09:24:26;;;;;;;4.23;2.07;;;;;;;7.87;100.00;100118.31;4963363;28;20465;-72
2023/04/12 09:27:03;;;;;;;4.93;1.97;;;;;;;7.35;100.00;100059.13;4981825;28;20433;-72
2023/04/12 09:29:29;;;;;;;4.13;2.00;;;;;;;7.80;100.00;100130.78;4984861;28;20440;-72
2023/04/12 09:32:07;;;;;;;4.70;1.77;;;;;;;7.89;100.00;100135.75;4963569;28;20500;-72
2023/04/12 09:34:34;;;;;;;4.50;2.00;;;;;;;6.92;100.00;100011.28;4981082;28;20443;-72
2023/04/12 09:37:15;;;;;;;5.00;1.90;;;;;;;7.17;100.00;100054.28;4981355;28;20443;-72
2023/04/12 09:39:41;;;;;;;7.90;1.87;;;;;;;7.82;100.00;100152.78;4971930;28;20990;-72
2023/04/12 09:42:11;;;;;;;3.73;1.80;;;;;;;7.85;100.00;100174.56;4979455;28;20528;-72
2023/04/12 09:44:37;;;;;;;2.30;1.53;;;;;;;7.42;100.00;100091.16;4963525;28;20511;-72
2023/04/12 09:47:04;;;;;;;4.90;2.33;;;;;;;7.84;100.00;100164.06;4981481;28;20442;-72
2023/04/12 09:49:40;;;;;;;4.13;1.80;;;;;;;7.94;100.00;100169.91;4966292;28;20449;-72
2023/04/12 09:52:09;;;;;;;2.90;1.90;;;;;;;7.24;100.00;100087.16;4982760;28;20433;-72
2023/04/12 09:54:45;;;;;;;4.93;1.57;;;;;;;7.77;100.00;100176.56;4964086;28;20588;-72
2023/04/12 09:57:12;;;;;;;2.47;1.40;;;;;;;7.31;100.00;100091.72;4963184;28;20535;-72
2023/04/12 09:59:41;;;;;;;2.57;1.53;;;;;;;7.86;100.00;100188.75;4981703;28;20420;-72
2023/04/12 10:02:18;;;;;;;4.20;1.70;;;;;;;7.12;100.00;100104.72;4981606;28;20425;-72
2023/04/12 10:04:44;;;;;;;2.17;1.63;;;;;;;7.46;100.00;100135.09;4980983;28;20437;-72
2023/04/12 10:07:11;;;;;;;4.57;2.00;;;;;;;7.39;100.00;100140.41;4964886;28;20958;-72
2023/04/12 10:09:38;;;;;;;4.90;1.57;;;;;;;7.80;100.00;100205.56;4963595;28;20450;-72
2023/04/12 10:12:03;;;;;;;2.40;1.23;;;;;;;7.78;100.00;100226.28;4964093;28;20465;-72
2023/04/12 10:14:30;;;;;;;3.40;1.60;;;;;;;7.27;100.00;100133.16;4963828;28;20543;-72
2023/04/12 10:17:00;;;;;;;4.73;1.50;;;;;;;7.28;100.00;100153.47;4962158;28;20429;-71
2023/04/12 10:19:27;;;;;;;3.23;1.90;;;;;;;7.86;100.00;100240.28;4980120;28;20875;-72
2023/04/12 10:21:54;;;;;;;4.30;1.60;;;;;;;7.80;100.00;100235.72;4963399;28;20420;-72
2023/04/12 10:24:24;;;;;;;2.40;1.50;;;;;;;7.83;100.00;100243.34;4963711;28;20981;-72
2023/04/12 10:26:51;;;;;;;3.33;1.60;;;;;;;7.77;100.00;100232.63;4982198;28;20942;-72
2023/04/12 10:29:32;;;;;;;5.47;2.67;;;;;;;7.87;100.00;100249.97;4963714;28;20449;-72
2023/04/12 10:32:21;;;;;;;4.60;2.10;;;;;;;7.86;100.00;100263.50;4963759;28;20443;-72
2023/04/12 10:34:51;;;;;;;1.80;1.43;;;;;;;8.02;100.00;100270.41;4965760;28;20430;-72
2023/04/12 10:37:17;;;;;;;2.00;1.80;;;;;;;7.51;100.00;100185.25;4985769;28;20436;-72
2023/04/12 10:39:46;;;;;;;2.13;1.30;;;;;;;7.75;100.00;100200.78;4984935;28;20432;-72
2023/04/12 10:42:26;;;;;;;2.20;1.90;;;;;;;7.89;100.00;100202.50;4968015;28;20610;-72
2023/04/12 10:45:13;;;;;;;2.87;1.87;;;;;;;7.89;100.00;100199.84;4967657;28;20424;-72
2023/04/12 10:47:47;;;;;;;3.03;1.40;;;;;;;8.49;100.00;100266.97;4984416;28;20422;-72
2023/04/12 10:50:24;;;;;;;2.20;1.87;;;;;;;8.12;100.00;100220.94;4984436;28;20466;-72
2023/04/12 10:53:08;;;;;;;2.23;1.50;;;;;;;8.63;100.00;100273.22;4990975;28;20448;-72
2023/04/12 10:55:34;;;;;;;2.13;1.67;;;;;;;8.24;100.00;100201.66;4986391;28;20450;-72
2023/04/12 10:58:00;;;;;;;1.87;1.73;;;;;;;8.05;100.00;100200.56;4985102;28;20444;-72
2023/04/12 11:00:57;;;;;;;2.53;1.83;;;;;;;8.68;100.00;100292.16;4986493;28;20181;-71
2023/04/12 11:03:24;;;;;;;2.70;1.87;;;;;;;8.17;100.00;100243.56;4968714;28;20291;-72
2023/04/12 11:06:05;;;;;;;2.27;1.87;;;;;;;8.57;100.00;100253.44;4984571;28;20470;-71
2023/04/12 11:08:39;;;;;;;2.10;1.80;;;;;;;8.40;100.00;100212.06;4984712;28;20484;-72
2023/04/12 11:11:18;;;;;;;3.03;2.33;;;;;;;8.61;100.00;100261.88;4980562;28;20476;-71
2023/04/12 11:13:43;;;;;;;3.67;2.80;;;;;;;8.46;100.00;100221.13;4964902;28;20987;-71
2023/04/12 11:16:11;;;;;;;5.07;3.00;;;;;;;9.00;100.00;100304.00;4983394;28;20471;-72
2023/04/12 11:18:37;;;;;;;2.87;2.50;;;;;;;8.94;100.00;100293.25;4981803;28;20199;-72
2023/04/12 11:21:03;;;;;;;2.53;2.33;;;;;;;9.05;100.00;100309.56;4983788;28;20422;-72
2023/04/12 11:23:30;;;;;;;4.17;3.03;;;;;;;8.83;100.00;100271.44;4985868;28;20543;-72
2023/04/12 11:25:56;;;;;;;5.20;2.40;;;;;;;8.67;100.00;100237.00;4966859;28;20487;-72
2023/04/12 11:28:22;;;;;;;2.60;2.40;;;;;;;9.49;100.00;100302.03;4966579;28;20460;-72
2023/04/12 11:30:57;;;;;;;3.27;2.53;;;;;;;9.44;100.00;100320.53;4984098;28;20990;-72
2023/04/12 11:33:36;;;;;;;3.23;2.20;;;;;;;8.96;100.00;100248.41;4983403;28;20268;-72